createdAt,value
2023-03-08T00:01:24.378Z,96451.95
2023-03-08T00:03:55.519Z,96449.36
2023-03-08T00:06:25.873Z,96447.25
2023-03-08T00:08:59.611Z,96448.35
2023-03-08T00:11:29.630Z,96454.88
2023-03-08T00:13:58.530Z,96457.55
2023-03-08T00:16:27.245Z,96455.36
2023-03-08T00:18:55.919Z,96448.87
2023-03-08T00:21:24.404Z,96450.13
2023-03-08T00:23:54.619Z,96451.72
2023-03-08T00:26:23.037Z,96452.44
2023-03-08T00:28:51.733Z,96454.73
2023-03-08T00:31:21.826Z,96457.90
2023-03-08T00:33:55.004Z,96459.20
2023-03-08T00:36:23.681Z,96457.94
2023-03-08T00:38:52.827Z,96459.98
2023-03-08T00:41:21.367Z,96461.16
2023-03-08T00:43:50.198Z,96454.58
2023-03-08T00:46:18.581Z,96441.78
2023-03-08T00:48:46.798Z,96434.18
2023-03-08T00:51:18.933Z,96434.16
2023-03-08T00:53:49.343Z,96432.07
2023-03-08T00:56:18.054Z,96433.61
2023-03-08T00:58:46.996Z,96426.69
2023-03-08T01:01:19.061Z,96422.67
2023-03-08T01:03:50.052Z,96418.63
2023-03-08T01:06:19.521Z,96418.53
2023-03-08T01:08:48.133Z,96415.10
2023-03-08T01:11:21.643Z,96411.63
2023-03-08T01:13:51.586Z,96397.70
2023-03-08T01:16:22.435Z,96393.18
2023-03-08T01:18:52.516Z,96398.85
2023-03-08T01:21:22.693Z,96402.89
2023-03-08T01:23:52.599Z,96403.42
2023-03-08T01:26:24.683Z,96398.91
2023-03-08T01:28:57.696Z,96384.58
2023-03-08T01:31:31.148Z,96380.63
2023-03-08T01:34:01.604Z,96374.41
2023-03-08T01:36:30.384Z,96368.54
2023-03-08T01:39:01.834Z,96372.70
2023-03-08T01:41:32.239Z,96373.41
2023-03-08T01:44:00.954Z,96370.14
2023-03-08T01:46:30.839Z,96366.37
2023-03-08T01:49:20.651Z,96369.30
2023-03-08T01:52:07.246Z,96372.06
2023-03-08T01:55:00.700Z,96373.91
2023-03-08T01:57:39.407Z,96375.56
2023-03-08T02:00:14.935Z,96376.88
2023-03-08T02:02:57.155Z,96376.29
2023-03-08T02:05:26.675Z,96378.08
2023-03-08T02:07:59.311Z,96382.11
2023-03-08T02:10:31.041Z,96381.61
2023-03-08T02:12:59.989Z,96379.56
2023-03-08T02:15:28.437Z,96375.64
2023-03-08T02:17:58.680Z,96377.83
2023-03-08T02:20:31.168Z,96376.45
2023-03-08T02:23:23.855Z,96376.50
2023-03-08T02:26:04.210Z,96379.64
2023-03-08T02:28:33.738Z,96381.05
2023-03-08T02:31:02.537Z,96384.90
2023-03-08T02:33:32.625Z,96382.52
2023-03-08T02:36:05.582Z,96385.66
2023-03-08T02:38:35.062Z,96383.39
2023-03-08T02:41:03.653Z,96377.80
2023-03-08T02:43:32.275Z,96377.58
2023-03-08T02:46:01.152Z,96382.52
2023-03-08T02:48:29.437Z,96388.39
2023-03-08T02:50:57.699Z,96395.45
2023-03-08T02:53:26.569Z,96400.63
2023-03-08T02:55:55.003Z,96405.92
2023-03-08T02:58:24.163Z,96409.27
2023-03-08T03:00:52.557Z,96407.98
2023-03-08T03:03:20.816Z,96412.73
2023-03-08T03:05:52.613Z,96412.48
2023-03-08T03:08:26.907Z,96417.72
2023-03-08T03:10:56.274Z,96417.63
2023-03-08T03:13:24.819Z,96419.34
2023-03-08T03:15:53.514Z,96418.31
2023-03-08T03:18:22.833Z,96419.55
2023-03-08T03:20:51.409Z,96420.64
2023-03-08T03:23:19.632Z,96423.95
2023-03-08T03:25:52.931Z,96421.91
2023-03-08T03:28:22.014Z,96425.19
2023-03-08T03:30:51.349Z,96429.80
2023-03-08T03:33:20.075Z,96431.64
2023-03-08T03:35:48.590Z,96427.27
2023-03-08T03:38:17.102Z,96427.05
2023-03-08T03:40:46.405Z,96436.63
2023-03-08T03:43:14.975Z,96436.46
2023-03-08T03:45:43.183Z,96432.83
2023-03-08T03:48:11.464Z,96430.41
2023-03-08T03:50:40.016Z,96430.95
2023-03-08T03:53:12.802Z,96432.23
2023-03-08T03:55:41.804Z,96429.66
2023-03-08T03:58:10.230Z,96430.23
2023-03-08T04:00:39.171Z,96430.13
2023-03-08T04:03:15.000Z,96441.82
2023-03-08T04:05:44.186Z,96445.51
2023-03-08T04:08:12.478Z,96447.13
2023-03-08T04:10:42.076Z,96447.88
2023-03-08T04:13:13.536Z,96447.21
2023-03-08T04:15:42.207Z,96456.91
2023-03-08T04:18:12.916Z,96445.83
2023-03-08T04:20:45.893Z,96446.45
2023-03-08T04:23:15.112Z,96446.92
2023-03-08T04:25:47.734Z,96441.39
2023-03-08T04:28:17.027Z,96440.36
2023-03-08T04:30:46.570Z,96444.91
2023-03-08T04:33:16.185Z,96444.16
2023-03-08T04:35:48.061Z,96444.95
2023-03-08T04:38:17.158Z,96444.88
2023-03-08T04:41:12.328Z,96438.70
2023-03-08T04:43:54.855Z,96432.20
2023-03-08T04:46:28.090Z,96431.52
2023-03-08T04:48:57.073Z,96428.70
2023-03-08T04:51:27.809Z,96430.55
2023-03-08T04:53:57.266Z,96427.70
2023-03-08T04:56:27.131Z,96429.84
2023-03-08T04:58:56.833Z,96431.89
2023-03-08T05:01:25.632Z,96434.64
2023-03-08T05:03:55.369Z,96433.27
2023-03-08T05:06:36.033Z,96437.61
2023-03-08T05:09:05.200Z,96437.79
2023-03-08T05:11:35.657Z,96437.04
2023-03-08T05:14:05.210Z,96430.92
2023-03-08T05:16:35.325Z,96436.73
2023-03-08T05:19:05.384Z,96444.32
2023-03-08T05:21:37.495Z,96447.75
2023-03-08T05:24:06.831Z,96448.95
2023-03-08T05:26:37.650Z,96451.52
2023-03-08T05:29:07.061Z,96456.53
2023-03-08T05:31:38.019Z,96459.27
2023-03-08T05:34:09.540Z,96457.64
2023-03-08T05:36:38.648Z,96459.77
2023-03-08T05:39:08.965Z,96466.06
2023-03-08T05:41:53.232Z,96469.06
2023-03-08T05:44:29.643Z,96466.86
2023-03-08T05:46:58.740Z,96469.02
2023-03-08T05:49:28.807Z,96475.30
2023-03-08T05:51:58.378Z,96472.92
2023-03-08T05:54:27.459Z,96467.25
2023-03-08T05:56:58.743Z,96472.29
2023-03-08T05:59:28.470Z,96477.46
2023-03-08T06:02:01.131Z,96478.28
2023-03-08T06:04:50.261Z,96475.73
2023-03-08T06:07:21.718Z,96480.31
2023-03-08T06:09:56.582Z,96484.46
2023-03-08T06:12:25.590Z,96486.10
2023-03-08T06:14:56.699Z,96485.66
2023-03-08T06:17:27.474Z,96486.78
2023-03-08T06:19:57.053Z,96489.31
2023-03-08T06:22:26.264Z,96496.56
2023-03-08T06:24:55.358Z,96497.33
2023-03-08T06:27:29.672Z,96502.59
2023-03-08T06:30:00.253Z,96502.30
2023-03-08T06:32:28.795Z,96505.09
2023-03-08T06:34:57.349Z,96508.92
2023-03-08T06:37:25.864Z,96509.98
2023-03-08T06:39:54.306Z,96506.54
2023-03-08T06:42:39.814Z,96509.87
2023-03-08T06:45:11.981Z,96514.19
2023-03-08T06:47:42.437Z,96512.14
2023-03-08T06:50:12.104Z,96515.45
2023-03-08T06:52:45.458Z,96516.52
2023-03-08T06:55:15.326Z,96522.49
2023-03-08T06:57:44.230Z,96524.67
2023-03-08T07:00:13.604Z,96526.92
2023-03-08T07:02:42.305Z,96527.05
2023-03-08T07:05:11.159Z,96528.41
2023-03-08T07:07:40.654Z,96522.83
2023-03-08T07:10:12.077Z,96528.66
2023-03-08T07:12:44.032Z,96532.85
2023-03-08T07:15:19.069Z,96533.55
2023-03-08T07:17:49.166Z,96533.77
2023-03-08T07:20:20.065Z,96534.88
2023-03-08T07:22:48.492Z,96530.48
2023-03-08T07:25:19.471Z,96529.02
2023-03-08T07:27:47.966Z,96529.89
2023-03-08T07:30:17.150Z,96525.02
2023-03-08T07:32:45.714Z,96520.67
2023-03-08T07:35:16.086Z,96525.30
2023-03-08T07:37:46.249Z,96531.77
2023-03-08T07:40:16.960Z,96535.14
2023-03-08T07:42:47.317Z,96538.96
2023-03-08T07:45:32.230Z,96538.38
2023-03-08T07:48:00.759Z,96541.89
2023-03-08T07:50:30.139Z,96546.92
2023-03-08T07:53:00.458Z,96545.90
2023-03-08T07:55:29.325Z,96550.75
2023-03-08T07:57:57.913Z,96547.69
2023-03-08T08:00:27.405Z,96539.11
2023-03-08T08:02:55.952Z,96534.48
2023-03-08T08:05:24.586Z,96534.81
2023-03-08T08:07:54.197Z,96533.30
2023-03-08T08:10:23.057Z,96529.17
2023-03-08T08:12:51.892Z,96523.52
2023-03-08T08:15:21.163Z,96519.95
2023-03-08T08:17:50.216Z,96516.46
2023-03-08T08:20:19.339Z,96511.92
2023-03-08T08:22:48.016Z,96507.68
2023-03-08T08:25:16.797Z,96515.09
2023-03-08T08:27:46.094Z,96521.66
2023-03-08T08:30:15.998Z,96518.40
2023-03-08T08:32:45.826Z,96508.11
2023-03-08T08:35:14.447Z,96496.73
2023-03-08T08:37:43.431Z,96497.05
2023-03-08T08:40:12.749Z,96504.29
2023-03-08T08:42:41.714Z,96512.60
2023-03-08T08:45:11.649Z,96515.38
2023-03-08T08:47:42.105Z,96516.69
2023-03-08T08:50:13.940Z,96522.14
2023-03-08T08:52:42.983Z,96522.41
2023-03-08T08:55:11.958Z,96520.14
2023-03-08T08:57:40.667Z,96520.10
2023-03-08T09:00:10.166Z,96521.68
2023-03-08T09:02:39.527Z,96516.39
2023-03-08T09:05:09.014Z,96521.29
2023-03-08T09:07:38.969Z,96518.40
2023-03-08T09:10:11.640Z,96517.48
2023-03-08T09:12:42.774Z,96514.67
2023-03-08T09:15:12.362Z,96517.68
2023-03-08T09:17:41.520Z,96509.80
2023-03-08T09:20:11.761Z,96513.95
2023-03-08T09:22:43.394Z,96511.95
2023-03-08T09:25:13.283Z,96508.31
2023-03-08T09:27:43.205Z,96507.79
2023-03-08T09:30:15.305Z,96505.77
2023-03-08T09:32:44.669Z,96513.35
2023-03-08T09:35:15.356Z,96511.01
2023-03-08T09:37:44.177Z,96509.21
2023-03-08T09:40:25.341Z,96505.59
2023-03-08T09:43:02.194Z,96500.09
2023-03-08T09:45:31.132Z,96501.23
2023-03-08T09:48:13.475Z,96498.52
2023-03-08T09:50:42.176Z,96506.63
2023-03-08T09:53:25.719Z,96507.79
2023-03-08T09:56:21.400Z,96508.02
2023-03-08T09:58:58.783Z,96510.89
2023-03-08T10:01:42.707Z,96503.70
2023-03-08T10:04:15.306Z,96506.98
2023-03-08T10:06:43.500Z,96508.78
2023-03-08T10:09:42.435Z,96508.77
2023-03-08T10:12:38.866Z,96515.40
2023-03-08T10:15:22.328Z,96511.98
2023-03-08T10:18:05.480Z,96515.76
2023-03-08T10:20:40.942Z,96521.63
2023-03-08T10:23:23.581Z,96521.65
2023-03-08T10:25:52.389Z,96520.85
2023-03-08T10:28:25.489Z,96521.84
2023-03-08T10:31:00.721Z,96529.45
2023-03-08T10:33:36.092Z,96528.53
2023-03-08T10:36:06.464Z,96528.23
2023-03-08T10:38:37.430Z,96526.69
2023-03-08T10:41:15.221Z,96523.11
2023-03-08T10:43:50.204Z,96524.40
2023-03-08T10:46:27.126Z,96530.56
2023-03-08T10:49:14.523Z,96533.84
2023-03-08T10:51:59.825Z,96536.27
2023-03-08T10:54:29.494Z,96537.98
2023-03-08T10:57:02.143Z,96539.55
2023-03-08T10:59:34.913Z,96536.88
2023-03-08T11:02:22.807Z,96534.25
2023-03-08T11:04:57.601Z,96532.80
2023-03-08T11:07:30.149Z,96530.36
2023-03-08T11:10:14.864Z,96530.75
2023-03-08T11:12:44.398Z,96530.77
2023-03-08T11:15:18.236Z,96528.40
2023-03-08T11:17:58.892Z,96522.31
2023-03-08T11:20:34.604Z,96522.52
2023-03-08T11:23:05.873Z,96515.75
2023-03-08T11:25:44.158Z,96514.61
2023-03-08T11:28:33.967Z,96507.88
2023-03-08T11:31:21.156Z,96505.99
2023-03-08T11:34:22.681Z,96499.77
2023-03-08T11:37:14.297Z,96500.13
2023-03-08T11:39:46.388Z,96498.31
2023-03-08T11:42:44.523Z,96483.25
2023-03-08T11:45:26.455Z,96481.10
2023-03-08T11:48:39.762Z,96479.55
2023-03-08T11:51:37.332Z,96472.45
2023-03-08T11:54:18.580Z,96464.15
2023-03-08T11:56:48.119Z,96463.36
2023-03-08T11:59:27.084Z,96468.12
2023-03-08T12:02:03.299Z,96469.61
2023-03-08T12:04:38.892Z,96466.50
2023-03-08T12:07:16.340Z,96466.39
2023-03-08T12:10:15.582Z,96468.61
2023-03-08T12:12:51.802Z,96471.18
2023-03-08T12:15:41.550Z,96470.75
2023-03-08T12:18:28.308Z,96470.41
2023-03-08T12:21:11.950Z,96469.63
2023-03-08T12:23:43.213Z,96470.55
2023-03-08T12:26:26.046Z,96477.57
2023-03-08T12:29:02.374Z,96471.87
2023-03-08T12:31:40.446Z,96469.95
2023-03-08T12:34:28.135Z,96473.88
2023-03-08T12:36:57.854Z,96473.04
2023-03-08T12:39:33.768Z,96469.92
2023-03-08T12:42:11.387Z,96467.77
2023-03-08T12:44:40.831Z,96469.13
2023-03-08T12:47:12.425Z,96465.70
2023-03-08T12:49:47.626Z,96468.13
2023-03-08T12:52:19.118Z,96470.23
2023-03-08T12:55:21.118Z,96469.13
2023-03-08T12:57:53.756Z,96467.33
2023-03-08T13:00:26.242Z,96458.46
2023-03-08T13:03:07.244Z,96462.81
2023-03-08T13:05:38.670Z,96467.11
2023-03-08T13:08:13.809Z,96469.30
2023-03-08T13:10:54.621Z,96472.24
2023-03-08T13:13:52.699Z,96471.19
2023-03-08T13:16:31.621Z,96469.39
2023-03-08T13:19:09.503Z,96474.71
2023-03-08T13:21:51.162Z,96482.88
2023-03-08T13:24:41.544Z,96486.45
2023-03-08T13:27:28.315Z,96485.30
2023-03-08T13:30:14.323Z,96479.83
2023-03-08T13:32:43.057Z,96473.01
2023-03-08T13:35:15.568Z,96469.13
2023-03-08T13:37:53.325Z,96475.41
2023-03-08T13:40:23.769Z,96474.75
2023-03-08T13:43:02.536Z,96476.79
2023-03-08T13:45:32.442Z,96474.37
2023-03-08T13:48:07.446Z,96475.37
2023-03-08T13:50:37.955Z,96476.05
2023-03-08T13:53:18.722Z,96478.50
2023-03-08T13:55:51.757Z,96480.61
2023-03-08T13:58:26.883Z,96481.38
2023-03-08T14:01:19.850Z,96478.05
2023-03-08T14:03:49.394Z,96477.61
2023-03-08T14:06:30.112Z,96478.18
2023-03-08T14:09:00.793Z,96471.76
2023-03-08T14:11:33.328Z,96461.96
2023-03-08T14:14:04.827Z,96462.15
2023-03-08T14:16:39.823Z,96463.91
2023-03-08T14:19:30.182Z,96468.73
2023-03-08T14:22:02.444Z,96469.52
2023-03-08T14:24:34.220Z,96473.11
2023-03-08T14:27:16.308Z,96467.51
2023-03-08T14:29:46.063Z,96465.34
2023-03-08T14:32:14.888Z,96461.59
2023-03-08T14:34:46.725Z,96462.88
2023-03-08T14:37:28.617Z,96460.25
2023-03-08T14:40:21.172Z,96461.27
2023-03-08T14:42:53.682Z,96459.73
2023-03-08T14:45:38.120Z,96456.95
2023-03-08T14:48:28.752Z,96455.98
2023-03-08T14:51:26.054Z,96457.39
2023-03-08T14:54:01.744Z,96452.36
2023-03-08T14:56:31.623Z,96463.89
2023-03-08T14:59:02.450Z,96466.27
2023-03-08T15:01:35.143Z,96463.75
2023-03-08T15:04:13.856Z,96457.98
2023-03-08T15:06:44.683Z,96452.08
2023-03-08T15:09:17.004Z,96451.03
2023-03-08T15:11:48.016Z,96455.25
2023-03-08T15:14:16.863Z,96455.84
2023-03-08T15:16:45.518Z,96453.20
2023-03-08T15:19:14.619Z,96450.83
2023-03-08T15:21:43.504Z,96449.81
2023-03-08T15:24:17.963Z,96452.86
2023-03-08T15:26:46.871Z,96449.34
2023-03-08T15:29:30.639Z,96449.61
2023-03-08T15:32:00.107Z,96450.52
2023-03-08T15:34:28.714Z,96450.81
2023-03-08T15:36:57.371Z,96451.09
2023-03-08T15:39:26.024Z,96449.71
2023-03-08T15:41:54.811Z,96446.70
2023-03-08T15:44:23.242Z,96456.60
2023-03-08T15:46:52.974Z,96457.08
2023-03-08T15:49:22.034Z,96460.88
2023-03-08T15:51:50.442Z,96459.89
2023-03-08T15:54:18.906Z,96469.96
2023-03-08T15:56:47.032Z,96470.50
2023-03-08T15:59:15.484Z,96475.31
2023-03-08T16:01:43.672Z,96482.46
2023-03-08T16:04:12.129Z,96485.51
2023-03-08T16:06:44.088Z,96492.05
2023-03-08T16:09:12.933Z,96494.91
2023-03-08T16:11:41.239Z,96501.70
2023-03-08T16:14:09.411Z,96508.97
2023-03-08T16:16:45.284Z,96514.40
2023-03-08T16:19:14.312Z,96519.80
2023-03-08T16:21:42.533Z,96520.05
2023-03-08T16:24:11.904Z,96522.73
2023-03-08T16:26:39.977Z,96521.85
2023-03-08T16:29:09.963Z,96526.62
2023-03-08T16:31:38.419Z,96527.74
2023-03-08T16:34:07.135Z,96525.91
2023-03-08T16:36:35.219Z,96529.52
2023-03-08T16:39:05.747Z,96529.52
2023-03-08T16:41:36.339Z,96531.60
2023-03-08T16:44:05.917Z,96525.52
2023-03-08T16:46:34.384Z,96519.17
2023-03-08T16:49:03.404Z,96509.02
2023-03-08T16:51:31.746Z,96500.18
2023-03-08T16:54:00.222Z,96503.88
2023-03-08T16:56:30.006Z,96505.01
2023-03-08T16:59:01.519Z,96504.27
2023-03-08T17:01:31.785Z,96503.34
2023-03-08T17:04:01.203Z,96499.80
2023-03-08T17:06:31.283Z,96498.34
2023-03-08T17:09:00.194Z,96497.90
2023-03-08T17:11:31.400Z,96500.99
2023-03-08T17:14:03.525Z,96504.75
2023-03-08T17:16:33.146Z,96499.14
2023-03-08T17:19:02.704Z,96500.55
2023-03-08T17:21:32.056Z,96506.92
2023-03-08T17:24:00.540Z,96515.09
2023-03-08T17:26:29.119Z,96512.68
2023-03-08T17:28:57.461Z,96517.20
2023-03-08T17:31:26.411Z,96524.52
2023-03-08T17:33:54.541Z,96525.69
2023-03-08T17:36:23.001Z,96527.63
2023-03-08T17:38:53.557Z,96527.09
2023-03-08T17:41:23.002Z,96526.73
2023-03-08T17:43:52.066Z,96520.73
2023-03-08T17:46:25.859Z,96521.17
2023-03-08T17:48:55.105Z,96521.11
2023-03-08T17:51:30.299Z,96522.59
2023-03-08T17:54:01.375Z,96521.33
2023-03-08T17:56:32.304Z,96521.13
2023-03-08T17:59:01.717Z,96519.59
2023-03-08T18:01:31.507Z,96519.90
2023-03-08T18:04:01.470Z,96519.39
2023-03-08T18:06:37.973Z,96513.99
2023-03-08T18:09:10.101Z,96514.86
2023-03-08T18:11:38.867Z,96515.52
2023-03-08T18:14:10.597Z,96514.35
2023-03-08T18:16:40.085Z,96508.02
2023-03-08T18:19:08.611Z,96499.57
2023-03-08T18:21:38.854Z,96504.92
2023-03-08T18:24:12.807Z,96507.95
2023-03-08T18:26:40.903Z,96505.62
2023-03-08T18:29:09.503Z,96501.27
2023-03-08T18:31:38.629Z,96497.30
2023-03-08T18:34:08.001Z,96504.02
2023-03-08T18:36:37.998Z,96499.45
2023-03-08T18:39:09.149Z,96497.97
2023-03-08T18:41:38.500Z,96500.59
2023-03-08T18:44:07.838Z,96498.27
2023-03-08T18:46:36.282Z,96493.55
2023-03-08T18:49:10.815Z,96490.77
2023-03-08T18:51:41.289Z,96491.25
2023-03-08T18:54:17.979Z,96491.05
2023-03-08T18:56:50.068Z,96492.73
2023-03-08T18:59:18.593Z,96491.30
2023-03-08T19:01:46.727Z,96498.94
2023-03-08T19:04:15.103Z,96500.69
2023-03-08T19:06:43.526Z,96503.27
2023-03-08T19:09:17.252Z,96500.60
2023-03-08T19:11:48.295Z,96503.36
2023-03-08T19:14:17.392Z,96499.52
2023-03-08T19:16:46.011Z,96501.20
2023-03-08T19:19:15.939Z,96500.93
2023-03-08T19:21:46.916Z,96497.53
2023-03-08T19:24:17.332Z,96498.73
2023-03-08T19:26:51.459Z,96497.29
2023-03-08T19:29:21.083Z,96489.00
2023-03-08T19:31:50.947Z,96499.80
2023-03-08T19:34:34.566Z,96494.73
2023-03-08T19:37:04.868Z,96492.12
2023-03-08T19:39:36.627Z,96482.02
2023-03-08T19:42:08.827Z,96486.86
2023-03-08T19:44:37.314Z,96478.50
2023-03-08T19:47:05.589Z,96481.61
2023-03-08T19:49:35.563Z,96473.38
2023-03-08T19:52:06.022Z,96482.51
2023-03-08T19:54:34.639Z,96487.59
2023-03-08T19:57:03.337Z,96487.09
2023-03-08T19:59:32.070Z,96486.20
2023-03-08T20:02:00.371Z,96483.23
2023-03-08T20:04:29.501Z,96478.73
2023-03-08T20:07:01.721Z,96485.88
2023-03-08T20:09:29.752Z,96487.98
2023-03-08T20:11:59.143Z,96485.61
2023-03-08T20:14:28.463Z,96493.80
2023-03-08T20:16:59.370Z,96494.23
2023-03-08T20:19:31.995Z,96491.30
2023-03-08T20:22:00.831Z,96481.55
2023-03-08T20:24:28.952Z,96474.40
2023-03-08T20:26:57.363Z,96470.75
2023-03-08T20:29:25.433Z,96465.02
2023-03-08T20:31:56.064Z,96464.51
2023-03-08T20:34:25.695Z,96458.55
2023-03-08T20:36:53.891Z,96454.40
2023-03-08T20:39:22.833Z,96457.23
2023-03-08T20:41:51.377Z,96450.32
2023-03-08T20:44:19.503Z,96444.28
2023-03-08T20:46:48.893Z,96445.40
2023-03-08T20:49:17.221Z,96442.91
2023-03-08T20:51:45.096Z,96438.87
2023-03-08T20:54:13.117Z,96435.65
2023-03-08T20:56:41.138Z,96433.45
2023-03-08T20:59:09.174Z,96431.27
2023-03-08T21:01:37.602Z,96427.14
2023-03-08T21:04:06.344Z,96421.60
2023-03-08T21:06:34.616Z,96418.11
2023-03-08T21:09:03.318Z,96413.43
2023-03-08T21:11:31.248Z,96412.90
2023-03-08T21:13:59.398Z,96411.89
2023-03-08T21:16:28.925Z,96404.64
2023-03-08T21:19:00.922Z,96395.63
2023-03-08T21:21:35.681Z,96395.95
2023-03-08T21:24:11.054Z,96397.72
2023-03-08T21:26:39.356Z,96398.60
2023-03-08T21:29:11.080Z,96399.50
2023-03-08T21:31:51.022Z,96398.82
2023-03-08T21:34:20.519Z,96392.46
2023-03-08T21:36:49.150Z,96391.73
2023-03-08T21:39:19.314Z,96384.28
2023-03-08T21:41:48.759Z,96380.95
2023-03-08T21:44:20.065Z,96377.26
2023-03-08T21:46:51.700Z,96373.63
2023-03-08T21:49:23.252Z,96370.04
2023-03-08T21:51:53.181Z,96365.96
2023-03-08T21:54:22.569Z,96364.52
2023-03-08T21:56:50.732Z,96363.16
2023-03-08T21:59:19.054Z,96362.54
2023-03-08T22:01:49.121Z,96359.15
2023-03-08T22:04:18.048Z,96356.83
2023-03-08T22:06:46.647Z,96352.74
2023-03-08T22:09:14.849Z,96349.18
2023-03-08T22:11:42.935Z,96342.48
2023-03-08T22:14:12.047Z,96338.18
2023-03-08T22:16:40.102Z,96334.23
2023-03-08T22:19:10.136Z,96332.24
2023-03-08T22:21:38.293Z,96323.95
2023-03-08T22:24:06.513Z,96323.94
2023-03-08T22:26:34.561Z,96328.52
2023-03-08T22:29:02.578Z,96324.89
2023-03-08T22:31:31.200Z,96325.98
2023-03-08T22:34:00.573Z,96335.33
2023-03-08T22:36:28.982Z,96335.43
2023-03-08T22:38:57.126Z,96335.73
2023-03-08T22:41:27.204Z,96338.17
2023-03-08T22:43:55.628Z,96337.23
2023-03-08T22:46:27.057Z,96336.31
2023-03-08T22:48:58.341Z,96337.34
2023-03-08T22:51:28.451Z,96334.41
2023-03-08T22:53:59.205Z,96332.55
2023-03-08T22:56:30.404Z,96326.52
2023-03-08T22:58:58.889Z,96327.41
2023-03-08T23:01:28.770Z,96323.98
2023-03-08T23:03:59.733Z,96317.40
2023-03-08T23:06:29.810Z,96311.73
2023-03-08T23:09:00.938Z,96313.34
2023-03-08T23:11:29.488Z,96310.60
2023-03-08T23:13:57.624Z,96313.23
2023-03-08T23:16:26.063Z,96314.60
2023-03-08T23:18:55.313Z,96315.27
2023-03-08T23:21:27.026Z,96311.59
2023-03-08T23:23:56.280Z,96307.41
2023-03-08T23:26:27.478Z,96305.65
2023-03-08T23:28:57.373Z,96307.23
2023-03-08T23:31:27.973Z,96309.34
2023-03-08T23:33:57.250Z,96308.64
2023-03-08T23:36:26.489Z,96305.35
2023-03-08T23:38:55.448Z,96303.98
2023-03-08T23:41:24.436Z,96298.05
2023-03-08T23:43:58.282Z,96296.85
2023-03-08T23:46:27.259Z,96301.62
2023-03-08T23:48:57.175Z,96298.45
2023-03-08T23:51:27.800Z,96300.05
2023-03-08T23:53:58.489Z,96307.75
2023-03-08T23:56:31.048Z,96308.88
2023-03-08T23:59:02.628Z,96309.55
